x

Destruction Island, Wa (desw1) Weather Station

5:00 - Fri 22nd Sep 2017 All times are PDT. -7 hours from GMT.

  • Wind
  • Ar Temp 55°f
  • Sea Pressure 1017.8mb
  • Destruction Island, Wa
  • Destruction Island, Wa

More Historic Weather Station data

Upgrade to MSW Pro to gain access to the past 30 days of data for over 8000 Wavebouys and Weather Stations around the globe.

Join

Comparision Forecast

View Surf forecast
   
Sex 09/22 5:00  -  1 mph 1017.8mb 55f
4:00  -  2 mph 1017.9mb 55f
3:00 5 6 mph 1017.9mb 55f
2:00 6 6 mph 1017.9mb 57f
1:00 6 7 mph 1018.2mb 56f
12:00 5 7 mph 1018mb 56f
11:00 3 5 mph 1018mb 55f
10:00  -  1 mph 1018.2mb 55f
9:00  -  0 mph 1017.9mb 54f
8:00 3 3 mph 1017.4mb 51f
7:00 6 7 mph 1017.4mb 50f
6:00 5 5 mph 1017.2mb 50f
5:00 2 3 mph 1016.9mb 50f
4:00 7 8 mph 1016.9mb 50f
3:00 10 11 mph 1016.7mb 50f
2:00 13 14 mph 1016.9mb 50f
1:00 8 9 mph 1016.8mb 53f
12:00 5 6 mph 1016.8mb 52f
Qui 09/21 11:00 7 7 mph 1016.5mb 52f
10:00 7 7 mph 1016.3mb 53f
9:00 2 3 mph 1016.2mb 55f
8:00  -  1 mph 1015.6mb 55f
7:00 8 8 mph 1015.5mb 55f
6:00 9 9 mph 1015.1mb 55f
5:00 5 5 mph 1014.8mb 57f
4:00 5 5 mph 1014.6mb 56f
3:00 7 8 mph 1014.3mb 55f
2:00 5 6 mph 1014.1mb 56f
1:00 7 8 mph 1014mb 56f
12:00 6 7 mph 1013.8mb 57f
11:00 3 6 mph 1013.6mb 55f
10:00 1 2 mph 1013.2mb 56f
9:00 6 7 mph 1012.6mb 53f
8:00 7 7 mph 1012.4mb 50f
7:00 5 5 mph 1012.2mb 50f
6:00 10 11 mph 1011.5mb 50f
5:00 5 6 mph 1011.3mb 50f
4:00 6 7 mph 1011mb 50f
3:00 8 9 mph 1010.8mb 50f
2:00 9 9 mph 1010.7mb 50f
1:00 3 5 mph 1010.4mb 51f
12:00 8 8 mph 1010.2mb 51f
Qua 09/20 11:00 3 3 mph 1010.1mb 53f
10:00 2 3 mph 1010mb 54f
9:00 6 6 mph 1009.6mb 54f
8:00 9 10 mph 1009.3mb 54f
7:00 9 10 mph 1009mb 55f
6:00 15 16 mph 1008.5mb 55f
5:00 17 20 mph 1008mb 55f
4:00 15 16 mph 1007.7mb 55f
3:00 20 22 mph 1007.4mb 55f
2:00 18 21 mph 1006.9mb 55f
1:00 14 17 mph 1006.6mb 56f
12:00 10 13 mph 1006.1mb 55f
11:00 8 9 mph 1005.6mb 53f
10:00 7 8 mph 1005.3mb 51f
9:00 6 7 mph 1004.7mb 50f
8:00 5 6 mph 1004.2mb 50f
7:00 3 5 mph 1003.8mb 51f
6:00 3 5 mph 1003.5mb 50f
5:00  -  2 mph 1003.4mb 50f
4:00 6 8 mph 1003.2mb 50f
3:00 5 7 mph 1003.4mb 50f
2:00 5 6 mph 1003.6mb 52f
1:00 10 11 mph 1004mb 52f
12:00 11 13 mph 1005.2mb 51f
Ter 09/19 11:00 8 10 mph 1005.9mb 54f
10:00 13 14 mph 1006.3mb 54f
9:00 13 14 mph 1006.9mb 54f
8:00 13 14 mph 1007.3mb 55f
7:00 9 10 mph 1007.8mb 55f
6:00 8 9 mph 1008.3mb 56f
5:00 6 7 mph 1008.5mb 56f
4:00 6 7 mph 1008.6mb 56f
3:00 9 10 mph 1008.5mb 55f
2:00 13 14 mph 1008.4mb 54f
1:00 13 15 mph 1008.5mb 56f
12:00 14 16 mph 1008.2mb 55f
11:00 8 10 mph 1007.5mb 54f
10:00 3 5 mph 1007mb 53f
9:00 3 5 mph 1006.3mb 52f
8:00 9 9 mph 1005.6mb 52f
7:00 13 14 mph 1004.9mb 52f
6:00 15 18 mph 1004.5mb 52f
5:00 18 21 mph 1004mb 52f
4:00 22 24 mph 1003.7mb 52f
3:00 23 25 mph 1003.5mb 52f
2:00 21 22 mph 1003.6mb 52f